CMA CGM Aristote — MRPN4 — position and weather

sailwx.info

Track history (hours):
 
Tides and Currents Weather Stations Pressure Air Temp Water Temp Dewpoint Dewpoint Depression Visibility Wind Speed Wind Dir Waves Ship Positions

CMA CGM Aristote

Last reported at 2015-Apr-16 07:33 UTC. Time now 2015-Apr-21 06:38 UTC.
Position N 48°31' W 006°21'.

Length 170 m; draft 9.1 m.

Type: Ship (hazmat cat A). MMSI: 235054581.

Date/timePositionNaut miles runAvg speedWind from/ knotsBaromVisibWave heightAir tempDewpointWater temp
2015-Apr-16 07:33N 48°31' W 006°21'2418.9
2015-Apr-16 06:18N 48°48' W 005°56'4717.1
2015-Apr-16 03:33N 49°14' W 004°56'3013.8
2015-Apr-16 01:23N 49°29' W 004°17'1414.0
2015-Apr-16 00:23N 49°37' W 003°58'3115.5
2015-Apr-15 22:25N 49°51' W 003°17'1416.7
2015-Apr-15 21:33N 49°58' W 002°57'1616.2
2015-Apr-15 20:33N 50°01' W 002°33'1514.7
2015-Apr-15 19:33N 50°02' W 002°09'1313.5
2015-Apr-15 18:33N 49°59' W 001°49'1212.4
2015-Apr-15 17:33N 49°55' W 001°31'1211.8
2015-Apr-15 16:33N 49°50' W 001°14'1212.1
2015-Apr-15 15:33N 49°46' W 000°57'1414.0
2015-Apr-15 14:33N 49°40' W 000°37'1515.5
2015-Apr-15 13:33N 49°34' W 000°15'1413.9
2015-Apr-15 12:33N 49°29' E 000°05'3 3.2
2015-Apr-15 11:33N 49°29' E 000°10'0 0.0
2015-Apr-15 10:33N 49°29' E 000°10'0 0.0
2015-Apr-15 09:33N 49°29' E 000°10'0 0.0
2015-Apr-15 08:30N 49°29' E 000°10'0 0.0
2015-Apr-15 07:30N 49°29' E 000°10'0 0.0
2015-Apr-15 06:33N 49°29' E 000°10'0 0.0
2015-Apr-15 05:30N 49°29' E 000°10'0 0.0
2015-Apr-15 04:33N 49°29' E 000°10'0 0.0
2015-Apr-15 03:33N 49°29' E 000°10'0 0.0
2015-Apr-15 02:33N 49°29' E 000°10'0 0.0
2015-Apr-15 01:33N 49°29' E 000°10'0 0.0
2015-Apr-15 00:33N 49°29' E 000°10'0 0.0
2015-Apr-14 23:33N 49°29' E 000°10'0 0.0
2015-Apr-14 22:30N 49°29' E 000°10'0 0.0
2015-Apr-14 21:33N 49°29' E 000°10'0 0.0
2015-Apr-14 20:33N 49°29' E 000°10'0 0.0
2015-Apr-14 19:33N 49°29' E 000°10'2 1.6
2015-Apr-14 18:33N 49°28' E 000°08'7 7.0
2015-Apr-14 17:32N 49°30' W 000°03'0 0.0
2015-Apr-14 16:32N 49°30' W 000°03'0 0.0
2015-Apr-14 15:32N 49°30' W 000°03'0 0.1
2015-Apr-14 14:32N 49°30' W 000°03'0 0.1
2015-Apr-14 13:32N 49°30' W 000°03'0 0.0
2015-Apr-14 12:32N 49°30' W 000°03'0 0.0
2015-Apr-14 11:32N 49°30' W 000°03'0 0.0
2015-Apr-14 10:29N 49°30' W 000°03'0 0.0
2015-Apr-14 09:32N 49°30' W 000°03'0 0.0
2015-Apr-14 08:32N 49°30' W 000°03'0 0.1
2015-Apr-14 07:32N 49°30' W 000°03'0 0.0
2015-Apr-14 06:32N 49°30' W 000°03'0 0.0
2015-Apr-14 05:34N 49°30' W 000°03'1 1.1
2015-Apr-14 04:33N 49°29' W 000°02'1010.3
2015-Apr-14 03:33N 49°26' E 000°13'1010.3
2015-Apr-14 02:33N 49°29' E 000°29'7 6.7
2015-Apr-14 01:33N 49°26' E 000°38'6 6.2
2015-Apr-14 00:33N 49°30' E 000°46'5 3.6
2015-Apr-13 23:05N 49°29' E 000°54'10 0.3
2015-Apr-12 13:28N 49°28' E 000°40'8 8.9
2015-Apr-12 12:33N 49°28' E 000°27'1312.9
2015-Apr-12 11:34N 49°26' E 000°08'10 9.8
2015-Apr-12 10:33N 49°29' W 000°06'8 7.9
2015-Apr-12 09:33N 49°36' W 000°12'8 7.9
2015-Apr-12 08:33N 49°44' W 000°15'1 1.2
2015-Apr-12 07:33N 49°44' W 000°14'1111.1
2015-Apr-12 06:33N 49°55' W 000°12'1211.5
2015-Apr-12 05:33N 50°06' W 000°08'2310.3
2015-Apr-12 03:20N 50°28' E 000°00'1110.3
2015-Apr-12 02:14N 50°32' E 000°17'710.1
2015-Apr-12 01:34N 50°34' E 000°27'1010.2
2015-Apr-12 00:34N 50°39' E 000°41'1111.0
2015-Apr-11 23:33N 50°46' E 000°55'1212.2
2015-Apr-11 22:34N 50°54' E 001°09'1312.7
2015-Apr-11 21:34N 51°03' E 001°24'1211.7
2015-Apr-11 20:33N 51°11' E 001°37'1110.9
2015-Apr-11 19:33N 51°22' E 001°36'1211.5
2015-Apr-11 18:33N 51°29' E 001°21'1515.0
2015-Apr-11 17:33N 51°29' E 000°57'1615.7
2015-Apr-11 16:33N 51°30' E 000°32'8 8.1
2015-Apr-11 15:34N 51°28' E 000°20'0 0.2
2015-Apr-11 14:33N 51°27' E 000°20'0 0.0
2015-Apr-11 13:33N 51°27' E 000°20'0 0.0
2015-Apr-11 12:33N 51°27' E 000°20'0 0.0
2015-Apr-11 11:34N 51°27' E 000°20'0 0.0
2015-Apr-11 10:34N 51°27' E 000°20'0 0.0
2015-Apr-11 09:33N 51°27' E 000°20'0 0.0
2015-Apr-11 08:33N 51°27' E 000°20'0 0.0
2015-Apr-11 07:33N 51°27' E 000°20'1 1.0
2015-Apr-11 06:34N 51°27' E 000°22'8 8.1
2015-Apr-11 05:33N 51°30' E 000°34'1413.6
2015-Apr-11 04:33N 51°29' E 000°55'1717.0
2015-Apr-11 03:33N 51°28' E 001°23'9 8.6
2015-Apr-11 02:33N 51°30' E 001°36'1514.5
2015-Apr-11 01:34N 51°37' E 001°57'1515.2
2015-Apr-11 00:34N 51°47' E 002°15'1816.0
2015-Apr-10 23:25N 52°00' E 002°35'1011.4
2015-Apr-10 22:33N 52°03' E 002°51'1514.2
2015-Apr-10 21:32N 52°04' E 003°14'1414.4
2015-Apr-10 20:33N 52°04' E 003°37'1212.0
2015-Apr-10 19:34N 52°02' E 003°57'1110.9
2015-Apr-10 18:34N 51°56' E 004°12'8 8.4
2015-Apr-10 17:33N 51°53' E 004°24'1 0.5
2015-Apr-10 16:33N 51°53' E 004°24'0 0.0
2015-Apr-10 15:33N 51°53' E 004°24'0 0.0
2015-Apr-10 14:33N 51°53' E 004°24'0 0.0
2015-Apr-10 13:33N 51°53' E 004°24'0 0.0
2015-Apr-10 12:33N 51°53' E 004°24'0 0.0
2015-Apr-10 11:33N 51°53' E 004°24'0 0.0
2015-Apr-10 10:33N 51°53' E 004°24'0 0.0
2015-Apr-10 09:33N 51°53' E 004°24'0 0.0
2015-Apr-10 08:33N 51°53' E 004°24'0 0.0
2015-Apr-10 07:31N 51°53' E 004°24'0 0.0
2015-Apr-10 06:34N 51°53' E 004°24'0 0.0
2015-Apr-10 05:33N 51°53' E 004°24'0 0.0
2015-Apr-10 04:33N 51°53' E 004°24'0 0.0
2015-Apr-10 03:34N 51°53' E 004°24'0 0.0
2015-Apr-10 02:30N 51°53' E 004°24'0 0.0
2015-Apr-10 01:33N 51°53' E 004°24'0 0.0
2015-Apr-10 00:27N 51°53' E 004°24'0 0.0
2015-Apr-09 23:33N 51°53' E 004°24'0 0.0
2015-Apr-09 22:34N 51°53' E 004°24'0 0.0
2015-Apr-09 21:33N 51°53' E 004°24'0 0.0
2015-Apr-09 20:33N 51°53' E 004°24'4 4.3
2015-Apr-09 19:33N 51°54' E 004°18'1111.3
2015-Apr-09 18:33N 51°60' E 004°02'1312.7
2015-Apr-09 17:33N 51°59' E 003°41'1817.9
2015-Apr-09 16:32N 51°53' E 003°13'1818.3
2015-Apr-09 15:33N 51°47' E 002°46'1818.4
2015-Apr-09 14:33N 51°34' E 002°25'1818.3
2015-Apr-09 13:33N 51°19' E 002°09'1817.6
2015-Apr-09 12:33N 51°07' E 001°49'1716.7
2015-Apr-09 11:33N 50°55' E 001°30'1616.0
2015-Apr-09 10:33N 50°41' E 001°17'1816.5
2015-Apr-09 09:29N 50°30' E 000°55'1516.2
2015-Apr-09 08:33N 50°25' E 000°33'1815.8
2015-Apr-09 07:26N 50°19' E 000°07'1315.1
2015-Apr-09 06:33N 50°15' W 000°13'1514.7
2015-Apr-09 05:33N 50°12' W 000°36'1414.3
2015-Apr-09 04:33N 50°08' W 000°57'1514.0
2015-Apr-09 03:31N 50°05' W 001°20'1414.6
2015-Apr-09 02:31N 50°02' W 001°42'1715.9
2015-Apr-09 01:25N 49°57' W 002°07'1517.3
2015-Apr-09 00:33N 49°53' W 002°30'1817.4
2015-Apr-08 23:32N 49°48' W 002°56'15417.2
2015-Apr-08 14:34N 48°14' W 006°02'2020.2
2015-Apr-08 13:33N 47°56' W 006°16'2019.5
2015-Apr-08 12:33N 47°38' W 006°29'53018.8
2015-Apr-07 08:24N 39°09' W 009°51'1819.6
2015-Apr-07 07:28N 38°51' W 009°51'1819.8
2015-Apr-07 06:33N 38°33' W 009°50'2020.3
2015-Apr-07 05:33N 38°13' W 009°44'2120.4
2015-Apr-07 04:33N 37°53' W 009°38'2020.0
2015-Apr-07 03:33N 37°34' W 009°32'6318.3
2015-Apr-07 00:07N 36°40' W 008°52'1119.9
2015-Apr-06 23:33N 36°36' W 008°39'2220.2
2015-Apr-06 22:28N 36°30' W 008°13'13419.4
2015-Apr-06 15:33N 35°59' W 005°30'10 9.5
2015-Apr-06 14:32N 36°08' W 005°25'0 0.2
2015-Apr-06 13:33N 36°08' W 005°25'0 0.0
2015-Apr-06 12:33N 36°08' W 005°25'0 0.0
2015-Apr-06 11:06N 36°08' W 005°25'0 0.0
2015-Apr-06 10:33N 36°08' W 005°25'0 0.0
2015-Apr-06 08:30N 36°08' W 005°25'  
Track history (hours):
 
Tides and Currents Weather Stations Pressure Air Temp Water Temp Dewpoint Dewpoint Depression Visibility Wind Speed Wind Dir Waves Ship Positions

CMA CGM Aristote

Last reported at 2015-Apr-16 07:33 UTC. Time now 2015-Apr-21 06:38 UTC.
Position N 48°31' W 006°21'.

Length 170 m; draft 9.1 m.

Type: Ship (hazmat cat A). MMSI: 235054581.

Date/timePositionNaut miles runAvg speedWind from/ knotsBaromVisibWave heightAir tempDewpointWater temp
2015-Apr-16 07:33N 48°31' W 006°21'2418.9
2015-Apr-16 06:18N 48°48' W 005°56'4717.1
2015-Apr-16 03:33N 49°14' W 004°56'3013.8
2015-Apr-16 01:23N 49°29' W 004°17'1414.0
2015-Apr-16 00:23N 49°37' W 003°58'3115.5
2015-Apr-15 22:25N 49°51' W 003°17'1416.7
2015-Apr-15 21:33N 49°58' W 002°57'1616.2
2015-Apr-15 20:33N 50°01' W 002°33'1514.7
2015-Apr-15 19:33N 50°02' W 002°09'1313.5
2015-Apr-15 18:33N 49°59' W 001°49'1212.4
2015-Apr-15 17:33N 49°55' W 001°31'1211.8
2015-Apr-15 16:33N 49°50' W 001°14'1212.1
2015-Apr-15 15:33N 49°46' W 000°57'1414.0
2015-Apr-15 14:33N 49°40' W 000°37'1515.5
2015-Apr-15 13:33N 49°34' W 000°15'1413.9
2015-Apr-15 12:33N 49°29' E 000°05'3 3.2
2015-Apr-15 11:33N 49°29' E 000°10'0 0.0
2015-Apr-15 10:33N 49°29' E 000°10'0 0.0
2015-Apr-15 09:33N 49°29' E 000°10'0 0.0
2015-Apr-15 08:30N 49°29' E 000°10'0 0.0
2015-Apr-15 07:30N 49°29' E 000°10'0 0.0
2015-Apr-15 06:33N 49°29' E 000°10'0 0.0
2015-Apr-15 05:30N 49°29' E 000°10'0 0.0
2015-Apr-15 04:33N 49°29' E 000°10'0 0.0
2015-Apr-15 03:33N 49°29' E 000°10'0 0.0
2015-Apr-15 02:33N 49°29' E 000°10'0 0.0
2015-Apr-15 01:33N 49°29' E 000°10'0 0.0
2015-Apr-15 00:33N 49°29' E 000°10'0 0.0
2015-Apr-14 23:33N 49°29' E 000°10'0 0.0
2015-Apr-14 22:30N 49°29' E 000°10'0 0.0
2015-Apr-14 21:33N 49°29' E 000°10'0 0.0
2015-Apr-14 20:33N 49°29' E 000°10'0 0.0
2015-Apr-14 19:33N 49°29' E 000°10'2 1.6
2015-Apr-14 18:33N 49°28' E 000°08'7 7.0
2015-Apr-14 17:32N 49°30' W 000°03'0 0.0
2015-Apr-14 16:32N 49°30' W 000°03'0 0.0
2015-Apr-14 15:32N 49°30' W 000°03'0 0.1
2015-Apr-14 14:32N 49°30' W 000°03'0 0.1
2015-Apr-14 13:32N 49°30' W 000°03'0 0.0
2015-Apr-14 12:32N 49°30' W 000°03'0 0.0
2015-Apr-14 11:32N 49°30' W 000°03'0 0.0
2015-Apr-14 10:29N 49°30' W 000°03'0 0.0
2015-Apr-14 09:32N 49°30' W 000°03'0 0.0
2015-Apr-14 08:32N 49°30' W 000°03'0 0.1
2015-Apr-14 07:32N 49°30' W 000°03'0 0.0
2015-Apr-14 06:32N 49°30' W 000°03'0 0.0
2015-Apr-14 05:34N 49°30' W 000°03'1 1.1
2015-Apr-14 04:33N 49°29' W 000°02'1010.3
2015-Apr-14 03:33N 49°26' E 000°13'1010.3
2015-Apr-14 02:33N 49°29' E 000°29'7 6.7
2015-Apr-14 01:33N 49°26' E 000°38'6 6.2
2015-Apr-14 00:33N 49°30' E 000°46'5 3.6
2015-Apr-13 23:05N 49°29' E 000°54'10 0.3
2015-Apr-12 13:28N 49°28' E 000°40'8 8.9
2015-Apr-12 12:33N 49°28' E 000°27'1312.9
2015-Apr-12 11:34N 49°26' E 000°08'10 9.8
2015-Apr-12 10:33N 49°29' W 000°06'8 7.9
2015-Apr-12 09:33N 49°36' W 000°12'8 7.9
2015-Apr-12 08:33N 49°44' W 000°15'1 1.2
2015-Apr-12 07:33N 49°44' W 000°14'1111.1
2015-Apr-12 06:33N 49°55' W 000°12'1211.5
2015-Apr-12 05:33N 50°06' W 000°08'2310.3
2015-Apr-12 03:20N 50°28' E 000°00'1110.3
2015-Apr-12 02:14N 50°32' E 000°17'710.1
2015-Apr-12 01:34N 50°34' E 000°27'1010.2
2015-Apr-12 00:34N 50°39' E 000°41'1111.0
2015-Apr-11 23:33N 50°46' E 000°55'1212.2
2015-Apr-11 22:34N 50°54' E 001°09'1312.7
2015-Apr-11 21:34N 51°03' E 001°24'1211.7
2015-Apr-11 20:33N 51°11' E 001°37'1110.9
2015-Apr-11 19:33N 51°22' E 001°36'1211.5
2015-Apr-11 18:33N 51°29' E 001°21'1515.0
2015-Apr-11 17:33N 51°29' E 000°57'1615.7
2015-Apr-11 16:33N 51°30' E 000°32'8 8.1
2015-Apr-11 15:34N 51°28' E 000°20'0 0.2
2015-Apr-11 14:33N 51°27' E 000°20'0 0.0
2015-Apr-11 13:33N 51°27' E 000°20'0 0.0
2015-Apr-11 12:33N 51°27' E 000°20'0 0.0
2015-Apr-11 11:34N 51°27' E 000°20'0 0.0
2015-Apr-11 10:34N 51°27' E 000°20'0 0.0
2015-Apr-11 09:33N 51°27' E 000°20'0 0.0
2015-Apr-11 08:33N 51°27' E 000°20'0 0.0
2015-Apr-11 07:33N 51°27' E 000°20'1 1.0
2015-Apr-11 06:34N 51°27' E 000°22'8 8.1
2015-Apr-11 05:33N 51°30' E 000°34'1413.6
2015-Apr-11 04:33N 51°29' E 000°55'1717.0
2015-Apr-11 03:33N 51°28' E 001°23'9 8.6
2015-Apr-11 02:33N 51°30' E 001°36'1514.5
2015-Apr-11 01:34N 51°37' E 001°57'1515.2
2015-Apr-11 00:34N 51°47' E 002°15'1816.0
2015-Apr-10 23:25N 52°00' E 002°35'1011.4
2015-Apr-10 22:33N 52°03' E 002°51'1514.2
2015-Apr-10 21:32N 52°04' E 003°14'1414.4
2015-Apr-10 20:33N 52°04' E 003°37'1212.0
2015-Apr-10 19:34N 52°02' E 003°57'1110.9
2015-Apr-10 18:34N 51°56' E 004°12'8 8.4
2015-Apr-10 17:33N 51°53' E 004°24'1 0.5
2015-Apr-10 16:33N 51°53' E 004°24'0 0.0
2015-Apr-10 15:33N 51°53' E 004°24'0 0.0
2015-Apr-10 14:33N 51°53' E 004°24'0 0.0
2015-Apr-10 13:33N 51°53' E 004°24'0 0.0
2015-Apr-10 12:33N 51°53' E 004°24'0 0.0
2015-Apr-10 11:33N 51°53' E 004°24'0 0.0
2015-Apr-10 10:33N 51°53' E 004°24'0 0.0
2015-Apr-10 09:33N 51°53' E 004°24'0 0.0
2015-Apr-10 08:33N 51°53' E 004°24'0 0.0
2015-Apr-10 07:31N 51°53' E 004°24'0 0.0
2015-Apr-10 06:34N 51°53' E 004°24'0 0.0
2015-Apr-10 05:33N 51°53' E 004°24'0 0.0
2015-Apr-10 04:33N 51°53' E 004°24'0 0.0
2015-Apr-10 03:34N 51°53' E 004°24'0 0.0
2015-Apr-10 02:30N 51°53' E 004°24'0 0.0
2015-Apr-10 01:33N 51°53' E 004°24'0 0.0
2015-Apr-10 00:27N 51°53' E 004°24'0 0.0
2015-Apr-09 23:33N 51°53' E 004°24'0 0.0
2015-Apr-09 22:34N 51°53' E 004°24'0 0.0
2015-Apr-09 21:33N 51°53' E 004°24'0 0.0
2015-Apr-09 20:33N 51°53' E 004°24'4 4.3
2015-Apr-09 19:33N 51°54' E 004°18'1111.3
2015-Apr-09 18:33N 51°60' E 004°02'1312.7
2015-Apr-09 17:33N 51°59' E 003°41'1817.9
2015-Apr-09 16:32N 51°53' E 003°13'1818.3
2015-Apr-09 15:33N 51°47' E 002°46'1818.4
2015-Apr-09 14:33N 51°34' E 002°25'1818.3
2015-Apr-09 13:33N 51°19' E 002°09'1817.6
2015-Apr-09 12:33N 51°07' E 001°49'1716.7
2015-Apr-09 11:33N 50°55' E 001°30'1616.0
2015-Apr-09 10:33N 50°41' E 001°17'1816.5
2015-Apr-09 09:29N 50°30' E 000°55'1516.2
2015-Apr-09 08:33N 50°25' E 000°33'1815.8
2015-Apr-09 07:26N 50°19' E 000°07'1315.1
2015-Apr-09 06:33N 50°15' W 000°13'1514.7
2015-Apr-09 05:33N 50°12' W 000°36'1414.3
2015-Apr-09 04:33N 50°08' W 000°57'1514.0
2015-Apr-09 03:31N 50°05' W 001°20'1414.6
2015-Apr-09 02:31N 50°02' W 001°42'1715.9
2015-Apr-09 01:25N 49°57' W 002°07'1517.3
2015-Apr-09 00:33N 49°53' W 002°30'1817.4
2015-Apr-08 23:32N 49°48' W 002°56'15417.2
2015-Apr-08 14:34N 48°14' W 006°02'2020.2
2015-Apr-08 13:33N 47°56' W 006°16'2019.5
2015-Apr-08 12:33N 47°38' W 006°29'53018.8
2015-Apr-07 08:24N 39°09' W 009°51'1819.6
2015-Apr-07 07:28N 38°51' W 009°51'1819.8
2015-Apr-07 06:33N 38°33' W 009°50'2020.3
2015-Apr-07 05:33N 38°13' W 009°44'2120.4
2015-Apr-07 04:33N 37°53' W 009°38'2020.0
2015-Apr-07 03:33N 37°34' W 009°32'6318.3
2015-Apr-07 00:07N 36°40' W 008°52'1119.9
2015-Apr-06 23:33N 36°36' W 008°39'2220.2
2015-Apr-06 22:28N 36°30' W 008°13'13419.4
2015-Apr-06 15:33N 35°59' W 005°30'10 9.5
2015-Apr-06 14:32N 36°08' W 005°25'0 0.2
2015-Apr-06 13:33N 36°08' W 005°25'0 0.0
2015-Apr-06 12:33N 36°08' W 005°25'0 0.0
2015-Apr-06 11:06N 36°08' W 005°25'0 0.0
2015-Apr-06 10:33N 36°08' W 005°25'0 0.0
2015-Apr-06 08:30N 36°08' W 005°25'  

Dump ship's entire track history